createdAt,value
2023-10-23T00:01:23.372Z,100.00
2023-10-23T00:03:50.215Z,100.00
2023-10-23T00:06:16.839Z,100.00
2023-10-23T00:08:43.215Z,100.00
2023-10-23T00:11:09.729Z,100.00
2023-10-23T00:13:36.096Z,100.00
2023-10-23T00:16:02.525Z,100.00
2023-10-23T00:18:29.015Z,100.00
2023-10-23T00:20:55.448Z,100.00
2023-10-23T00:23:21.908Z,100.00
2023-10-23T00:25:48.242Z,100.00
2023-10-23T00:28:14.567Z,100.00
2023-10-23T00:30:41.090Z,100.00
2023-10-23T00:33:08.676Z,100.00
2023-10-23T00:35:35.130Z,100.00
2023-10-23T00:38:01.648Z,100.00
2023-10-23T00:40:28.052Z,100.00
2023-10-23T00:42:54.477Z,100.00
2023-10-23T00:45:21.311Z,100.00
2023-10-23T00:47:48.007Z,100.00
2023-10-23T00:50:14.822Z,100.00
2023-10-23T00:52:41.354Z,100.00
2023-10-23T00:55:08.563Z,100.00
2023-10-23T00:57:34.967Z,100.00
2023-10-23T01:00:01.931Z,100.00
2023-10-23T01:02:29.427Z,100.00
2023-10-23T01:04:56.088Z,100.00
2023-10-23T01:07:23.145Z,100.00
2023-10-23T01:09:49.620Z,100.00
2023-10-23T01:12:16.058Z,100.00
2023-10-23T01:14:42.423Z,100.00
2023-10-23T01:17:08.802Z,100.00
2023-10-23T01:19:35.363Z,100.00
2023-10-23T01:22:01.853Z,100.00
2023-10-23T01:24:33.727Z,100.00
2023-10-23T01:27:00.216Z,100.00
2023-10-23T01:29:26.567Z,100.00
2023-10-23T01:31:52.906Z,100.00
2023-10-23T01:34:19.335Z,100.00
2023-10-23T01:36:45.721Z,100.00
2023-10-23T01:39:12.084Z,100.00
2023-10-23T01:41:38.536Z,100.00
2023-10-23T01:44:05.086Z,100.00
2023-10-23T01:46:31.496Z,100.00
2023-10-23T01:48:58.054Z,100.00
2023-10-23T01:51:24.577Z,100.00
2023-10-23T01:53:50.964Z,100.00
2023-10-23T01:56:17.494Z,100.00
2023-10-23T01:58:44.038Z,100.00
2023-10-23T02:01:23.997Z,100.00
2023-10-23T02:03:51.524Z,100.00
2023-10-23T02:06:18.088Z,100.00
2023-10-23T02:08:44.849Z,100.00
2023-10-23T02:11:11.308Z,100.00
2023-10-23T02:13:38.287Z,100.00
2023-10-23T02:16:05.055Z,100.00
2023-10-23T02:18:31.642Z,100.00
2023-10-23T02:20:58.261Z,100.00
2023-10-23T02:23:25.337Z,100.00
2023-10-23T02:25:51.908Z,100.00
2023-10-23T02:28:18.324Z,100.00
2023-10-23T02:30:45.074Z,100.00
2023-10-23T02:33:11.670Z,100.00
2023-10-23T02:35:38.289Z,100.00
2023-10-23T02:38:04.651Z,100.00
2023-10-23T02:40:31.244Z,100.00
2023-10-23T02:42:57.619Z,100.00
2023-10-23T02:45:24.116Z,100.00
2023-10-23T02:47:50.712Z,100.00
2023-10-23T02:50:17.099Z,100.00
2023-10-23T02:52:43.575Z,100.00
2023-10-23T02:55:10.608Z,100.00
2023-10-23T02:57:37.184Z,100.00
2023-10-23T03:00:06.577Z,100.00
2023-10-23T03:02:34.443Z,100.00
2023-10-23T03:05:01.004Z,100.00
2023-10-23T03:07:27.423Z,100.00
2023-10-23T03:09:53.936Z,100.00
2023-10-23T03:12:20.522Z,100.00
2023-10-23T03:14:46.918Z,100.00
2023-10-23T03:17:13.251Z,100.00
2023-10-23T03:19:39.910Z,100.00
2023-10-23T03:22:06.430Z,100.00
2023-10-23T03:24:32.893Z,100.00
2023-10-23T03:26:59.246Z,100.00
2023-10-23T03:29:25.614Z,100.00
2023-10-23T03:31:52.874Z,100.00
2023-10-23T03:34:19.378Z,100.00
2023-10-23T03:36:45.760Z,100.00
2023-10-23T03:39:12.350Z,100.00
2023-10-23T03:41:38.779Z,100.00
2023-10-23T03:44:05.453Z,100.00
2023-10-23T03:46:32.082Z,100.00
2023-10-23T03:48:58.617Z,100.00
2023-10-23T03:51:25.068Z,100.00
2023-10-23T03:53:51.414Z,100.00
2023-10-23T03:56:17.937Z,100.00
2023-10-23T03:58:45.798Z,100.00
2023-10-23T04:01:13.434Z,100.00
2023-10-23T04:03:39.984Z,100.00
2023-10-23T04:06:06.784Z,100.00
2023-10-23T04:08:33.260Z,100.00
2023-10-23T04:11:00.204Z,100.00
2023-10-23T04:13:28.935Z,100.00
2023-10-23T04:15:59.458Z,100.00
2023-10-23T04:18:26.856Z,100.00
2023-10-23T04:21:08.302Z,100.00
2023-10-23T04:23:36.376Z,100.00
2023-10-23T04:26:03.082Z,100.00
2023-10-23T04:28:29.738Z,100.00
2023-10-23T04:30:56.829Z,100.00
2023-10-23T04:33:24.801Z,100.00
2023-10-23T04:35:58.670Z,100.00
2023-10-23T04:38:25.716Z,100.00
2023-10-23T04:40:54.395Z,100.00
2023-10-23T04:43:21.513Z,100.00
2023-10-23T04:45:49.628Z,100.00
2023-10-23T04:48:16.454Z,100.00
2023-10-23T04:50:43.235Z,100.00
2023-10-23T04:53:09.658Z,100.00
2023-10-23T04:55:39.603Z,100.00
2023-10-23T04:58:06.850Z,100.00
2023-10-23T05:00:38.567Z,100.00
2023-10-23T05:03:05.898Z,100.00
2023-10-23T05:05:32.972Z,100.00
2023-10-23T05:08:00.222Z,100.00
2023-10-23T05:10:26.869Z,100.00
2023-10-23T05:12:54.589Z,100.00
2023-10-23T05:15:21.083Z,100.00
2023-10-23T05:17:47.903Z,100.00
2023-10-23T05:20:14.595Z,100.00
2023-10-23T05:22:41.071Z,100.00
2023-10-23T05:25:09.631Z,100.00
2023-10-23T05:27:39.182Z,100.00
2023-10-23T05:30:07.884Z,100.00
2023-10-23T05:32:39.713Z,100.00
2023-10-23T05:35:06.637Z,100.00
2023-10-23T05:37:36.710Z,100.00
2023-10-23T05:40:06.020Z,100.00
2023-10-23T05:42:32.888Z,100.00
2023-10-23T05:45:00.477Z,100.00
2023-10-23T05:47:27.142Z,100.00
2023-10-23T05:49:57.653Z,100.00
2023-10-23T05:52:24.046Z,100.00
2023-10-23T05:54:50.542Z,100.00
2023-10-23T05:57:16.950Z,100.00
2023-10-23T05:59:43.391Z,100.00
2023-10-23T06:02:10.474Z,100.00
2023-10-23T06:04:37.983Z,100.00
2023-10-23T06:07:04.808Z,100.00
2023-10-23T06:09:31.218Z,100.00
2023-10-23T06:11:57.666Z,100.00
2023-10-23T06:14:24.197Z,100.00
2023-10-23T06:16:50.568Z,100.00
2023-10-23T06:19:16.979Z,100.00
2023-10-23T06:21:43.367Z,100.00
2023-10-23T06:24:09.958Z,100.00
2023-10-23T06:26:36.326Z,100.00
2023-10-23T06:29:03.077Z,100.00
2023-10-23T06:31:29.921Z,100.00
2023-10-23T06:33:56.424Z,100.00
2023-10-23T06:36:22.885Z,100.00
2023-10-23T06:38:49.679Z,100.00
2023-10-23T06:41:16.078Z,100.00
2023-10-23T06:43:42.950Z,100.00
2023-10-23T06:46:09.565Z,100.00
2023-10-23T06:48:36.202Z,100.00
2023-10-23T06:51:02.804Z,100.00
2023-10-23T06:53:29.184Z,100.00
2023-10-23T06:55:56.468Z,100.00
2023-10-23T06:58:23.254Z,100.00
2023-10-23T07:00:49.997Z,100.00
2023-10-23T07:03:16.608Z,100.00
2023-10-23T07:05:43.552Z,100.00
2023-10-23T07:08:10.266Z,100.00
2023-10-23T07:10:37.144Z,100.00
2023-10-23T07:13:11.168Z,100.00
2023-10-23T07:15:41.937Z,100.00
2023-10-23T07:18:11.444Z,100.00
2023-10-23T07:20:38.067Z,100.00
2023-10-23T07:23:04.622Z,100.00
2023-10-23T07:25:31.195Z,100.00
2023-10-23T07:27:57.583Z,100.00
2023-10-23T07:30:25.836Z,100.00
2023-10-23T07:32:52.479Z,100.00
2023-10-23T07:35:18.859Z,100.00
2023-10-23T07:37:45.268Z,100.00
2023-10-23T07:40:12.338Z,100.00
2023-10-23T07:42:39.025Z,100.00
2023-10-23T07:45:06.164Z,100.00
2023-10-23T07:47:32.627Z,100.00
2023-10-23T07:49:59.013Z,100.00
2023-10-23T07:52:25.380Z,100.00
2023-10-23T07:54:51.803Z,100.00
2023-10-23T07:57:18.437Z,100.00
2023-10-23T07:59:44.812Z,100.00
2023-10-23T08:02:11.403Z,100.00
2023-10-23T08:04:37.945Z,100.00
2023-10-23T08:07:04.783Z,100.00
2023-10-23T08:09:31.357Z,100.00
2023-10-23T08:11:57.756Z,100.00
2023-10-23T08:14:24.145Z,100.00
2023-10-23T08:16:53.394Z,100.00
2023-10-23T08:19:21.099Z,100.00
2023-10-23T08:21:47.815Z,100.00
2023-10-23T08:24:14.954Z,100.00
2023-10-23T08:26:41.680Z,100.00
2023-10-23T08:29:08.053Z,100.00
2023-10-23T08:31:40.144Z,100.00
2023-10-23T08:34:08.783Z,100.00
2023-10-23T08:36:35.555Z,100.00
2023-10-23T08:39:03.925Z,100.00
2023-10-23T08:41:30.528Z,100.00
2023-10-23T08:43:57.621Z,100.00
2023-10-23T08:46:30.906Z,100.00
2023-10-23T08:48:57.619Z,100.00
2023-10-23T08:51:25.116Z,100.00
2023-10-23T08:54:09.538Z,100.00
2023-10-23T08:56:39.321Z,100.00
2023-10-23T08:59:06.437Z,100.00
2023-10-23T09:01:37.473Z,100.00
2023-10-23T09:04:06.273Z,100.00
2023-10-23T09:06:34.123Z,100.00
2023-10-23T09:09:01.230Z,100.00
2023-10-23T09:11:45.778Z,100.00
2023-10-23T09:14:25.826Z,100.00
2023-10-23T09:16:54.243Z,100.00
2023-10-23T09:19:38.458Z,100.00
2023-10-23T09:22:07.826Z,100.00
2023-10-23T09:24:34.372Z,100.00
2023-10-23T09:27:00.748Z,100.00
2023-10-23T09:29:28.636Z,100.00
2023-10-23T09:31:57.255Z,100.00
2023-10-23T09:34:24.181Z,100.00
2023-10-23T09:36:52.058Z,100.00
2023-10-23T09:39:20.075Z,100.00
2023-10-23T09:41:47.086Z,100.00
2023-10-23T09:44:14.798Z,100.00
2023-10-23T09:46:43.496Z,100.00
2023-10-23T09:49:11.241Z,100.00
2023-10-23T09:51:42.704Z,100.00
2023-10-23T09:54:18.188Z,100.00
2023-10-23T09:56:51.889Z,100.00
2023-10-23T09:59:21.809Z,100.00
2023-10-23T10:01:52.343Z,100.00
2023-10-23T10:04:46.704Z,100.00
2023-10-23T10:07:20.850Z,100.00
2023-10-23T10:09:47.767Z,100.00
2023-10-23T10:12:14.428Z,100.00
2023-10-23T10:14:41.704Z,100.00
2023-10-23T10:17:11.177Z,100.00
2023-10-23T10:19:38.658Z,100.00
2023-10-23T10:22:18.493Z,100.00
2023-10-23T10:24:46.026Z,100.00
2023-10-23T10:27:13.883Z,100.00
2023-10-23T10:29:40.415Z,100.00
2023-10-23T10:32:13.858Z,100.00
2023-10-23T10:34:46.895Z,100.00
2023-10-23T10:39:47.500Z,100.00
2023-10-23T10:42:17.831Z,100.00
2023-10-23T10:45:11.300Z,100.00
2023-10-23T10:47:38.094Z,100.00
2023-10-23T10:50:05.353Z,100.00
2023-10-23T10:52:36.676Z,100.00
2023-10-23T10:55:06.066Z,100.00
2023-10-23T10:57:33.221Z,100.00
2023-10-23T11:00:00.339Z,100.00
2023-10-23T11:02:27.263Z,100.00
2023-10-23T11:04:53.700Z,100.00
2023-10-23T11:07:27.877Z,100.00
2023-10-23T11:09:55.135Z,100.00
2023-10-23T11:12:22.469Z,100.00
2023-10-23T11:14:49.187Z,100.00
2023-10-23T11:17:16.635Z,100.00
2023-10-23T11:19:44.178Z,100.00
2023-10-23T11:22:12.427Z,100.00
2023-10-23T11:24:39.897Z,100.00
2023-10-23T11:27:06.846Z,100.00
2023-10-23T11:29:49.892Z,100.00
2023-10-23T11:32:17.424Z,100.00
2023-10-23T11:34:45.813Z,100.00
2023-10-23T11:37:12.795Z,100.00
2023-10-23T11:39:43.242Z,100.00
2023-10-23T11:42:11.002Z,100.00
2023-10-23T11:44:37.441Z,100.00
2023-10-23T11:47:08.779Z,100.00
2023-10-23T11:49:35.706Z,100.00
2023-10-23T11:52:03.859Z,100.00
2023-10-23T11:54:30.680Z,100.00
2023-10-23T11:56:59.752Z,100.00
2023-10-23T11:59:27.958Z,99.94
2023-10-23T12:01:56.392Z,99.91
2023-10-23T12:04:24.286Z,99.20
2023-10-23T12:06:50.904Z,99.77
2023-10-23T12:09:17.413Z,99.36
2023-10-23T12:11:43.949Z,99.94
2023-10-23T12:14:10.496Z,100.00
2023-10-23T12:16:37.067Z,100.00
2023-10-23T12:19:05.392Z,100.00
2023-10-23T12:21:32.056Z,100.00
2023-10-23T12:23:58.488Z,100.00
2023-10-23T12:26:25.012Z,100.00
2023-10-23T12:28:51.393Z,99.76
2023-10-23T12:31:23.807Z,99.35
2023-10-23T12:33:51.281Z,99.58
2023-10-23T12:36:19.030Z,99.61
2023-10-23T12:38:45.610Z,99.71
2023-10-23T12:41:12.902Z,99.88
2023-10-23T12:43:39.371Z,99.17
2023-10-23T12:46:06.171Z,98.37
2023-10-23T12:48:32.870Z,98.76
2023-10-23T12:50:59.929Z,98.10
2023-10-23T12:53:26.461Z,97.45
2023-10-23T12:55:53.031Z,96.84
2023-10-23T12:58:19.451Z,96.61
2023-10-23T13:00:45.949Z,96.67
2023-10-23T13:03:12.402Z,96.01
2023-10-23T13:05:39.760Z,96.18
2023-10-23T13:08:06.323Z,95.61
2023-10-23T13:10:32.944Z,95.78
2023-10-23T13:12:59.516Z,95.61
2023-10-23T13:15:26.037Z,95.43
2023-10-23T13:17:55.060Z,94.87
2023-10-23T13:21:29.711Z,94.79
2023-10-23T13:23:08.723Z,94.22
2023-10-23T13:25:36.046Z,93.95
2023-10-23T13:28:02.496Z,94.18
2023-10-23T13:30:29.213Z,93.73
2023-10-23T13:32:55.885Z,93.52
2023-10-23T13:35:22.582Z,92.97
2023-10-23T13:37:49.050Z,92.67
2023-10-23T13:40:15.849Z,92.79
2023-10-23T13:42:42.509Z,92.35
2023-10-23T13:45:09.502Z,92.49
2023-10-23T13:47:36.059Z,91.74
2023-10-23T13:50:02.609Z,92.29
2023-10-23T13:52:29.053Z,91.92
2023-10-23T13:54:57.434Z,92.12
2023-10-23T13:57:25.142Z,92.47
2023-10-23T13:59:51.564Z,91.48
2023-10-23T14:02:17.953Z,91.25
2023-10-23T14:04:44.383Z,90.91
2023-10-23T14:07:13.422Z,91.47
2023-10-23T14:09:45.455Z,91.10
2023-10-23T14:12:15.676Z,90.84
2023-10-23T14:14:42.154Z,90.97
2023-10-23T14:17:08.901Z,91.02
2023-10-23T14:19:46.750Z,90.41
2023-10-23T14:22:15.126Z,90.79
2023-10-23T14:24:42.295Z,90.52
2023-10-23T14:27:10.130Z,90.61
2023-10-23T14:29:36.963Z,90.52
2023-10-23T14:32:03.784Z,90.60
2023-10-23T14:34:30.476Z,91.05
2023-10-23T14:36:57.002Z,91.24
2023-10-23T14:39:30.889Z,90.65
2023-10-23T14:41:57.430Z,90.70
2023-10-23T14:44:26.792Z,90.94
2023-10-23T14:46:53.535Z,91.02
2023-10-23T14:49:20.462Z,90.57
2023-10-23T14:51:46.868Z,91.19
2023-10-23T14:54:13.341Z,91.31
2023-10-23T14:56:39.759Z,91.29
2023-10-23T14:59:06.186Z,91.21
2023-10-23T15:01:33.126Z,91.35
2023-10-23T15:04:01.245Z,91.51
2023-10-23T15:06:28.124Z,91.57
2023-10-23T15:08:54.647Z,91.86
2023-10-23T15:11:25.478Z,91.88
2023-10-23T15:13:54.138Z,92.28
2023-10-23T15:16:21.041Z,92.12
2023-10-23T15:18:47.717Z,92.14
2023-10-23T15:21:16.003Z,92.02
2023-10-23T15:23:42.394Z,92.44
2023-10-23T15:26:09.857Z,92.16
2023-10-23T15:28:37.131Z,92.31
2023-10-23T15:31:06.355Z,92.36
2023-10-23T15:33:35.411Z,92.78
2023-10-23T15:36:02.916Z,92.96
2023-10-23T15:38:30.608Z,92.86
2023-10-23T15:41:04.174Z,93.77
2023-10-23T15:43:30.622Z,93.73
2023-10-23T15:45:58.079Z,94.24
2023-10-23T15:48:25.245Z,94.57
2023-10-23T15:50:52.021Z,95.16
2023-10-23T15:53:18.440Z,95.84
2023-10-23T15:55:48.113Z,96.29
2023-10-23T15:58:14.650Z,96.92
2023-10-23T16:00:41.204Z,97.59
2023-10-23T16:03:07.878Z,98.51
2023-10-23T16:05:34.432Z,98.66
2023-10-23T16:08:00.933Z,99.43
2023-10-23T16:10:28.787Z,99.97
2023-10-23T16:12:56.169Z,100.00
2023-10-23T16:15:22.768Z,100.00
2023-10-23T16:17:49.343Z,100.00
2023-10-23T16:20:16.505Z,100.00
2023-10-23T16:22:44.815Z,100.00
2023-10-23T16:25:11.587Z,100.00
2023-10-23T16:27:38.103Z,100.00
2023-10-23T16:30:07.425Z,100.00
2023-10-23T16:32:34.357Z,100.00
2023-10-23T16:35:00.948Z,100.00
2023-10-23T16:37:29.714Z,100.00
2023-10-23T16:39:59.312Z,100.00
2023-10-23T16:42:25.798Z,100.00
2023-10-23T16:44:56.181Z,100.00
2023-10-23T16:47:23.470Z,100.00
2023-10-23T16:49:50.919Z,100.00
2023-10-23T16:52:17.368Z,100.00
2023-10-23T16:54:43.884Z,100.00
2023-10-23T16:57:10.658Z,100.00
2023-10-23T16:59:37.828Z,100.00
2023-10-23T17:02:04.529Z,100.00
2023-10-23T17:04:32.185Z,100.00
2023-10-23T17:06:59.618Z,100.00
2023-10-23T17:09:26.551Z,100.00
2023-10-23T17:11:53.066Z,100.00
2023-10-23T17:14:19.457Z,100.00
2023-10-23T17:16:46.134Z,100.00
2023-10-23T17:19:12.661Z,100.00
2023-10-23T17:21:39.210Z,100.00
2023-10-23T17:24:06.151Z,100.00
2023-10-23T17:26:32.589Z,100.00
2023-10-23T17:29:00.648Z,100.00
2023-10-23T17:31:28.071Z,100.00
2023-10-23T17:33:54.589Z,100.00
2023-10-23T17:36:21.535Z,100.00
2023-10-23T17:38:48.072Z,100.00
2023-10-23T17:41:16.062Z,100.00
2023-10-23T17:43:43.614Z,100.00
2023-10-23T17:46:13.429Z,100.00
2023-10-23T17:48:39.971Z,100.00
2023-10-23T17:51:15.064Z,100.00
2023-10-23T17:54:04.266Z,100.00
2023-10-23T17:56:33.956Z,100.00
2023-10-23T17:59:01.944Z,100.00
2023-10-23T18:01:28.437Z,100.00
2023-10-23T18:03:56.627Z,100.00
2023-10-23T18:06:23.221Z,100.00
2023-10-23T18:08:49.657Z,100.00
2023-10-23T18:11:16.255Z,100.00
2023-10-23T18:13:44.640Z,100.00
2023-10-23T18:16:14.649Z,100.00
2023-10-23T18:18:41.324Z,100.00
2023-10-23T18:21:08.298Z,100.00
2023-10-23T18:23:35.281Z,100.00
2023-10-23T18:26:01.935Z,100.00
2023-10-23T18:28:29.680Z,100.00
2023-10-23T18:31:00.627Z,100.00
2023-10-23T18:33:27.561Z,100.00
2023-10-23T18:36:01.304Z,100.00
2023-10-23T18:38:28.506Z,100.00
2023-10-23T18:40:55.852Z,100.00
2023-10-23T18:43:24.227Z,100.00
2023-10-23T18:45:50.869Z,100.00
2023-10-23T18:48:17.517Z,100.00
2023-10-23T18:50:44.279Z,100.00
2023-10-23T18:53:10.672Z,100.00
2023-10-23T18:55:37.084Z,100.00
2023-10-23T18:58:03.729Z,100.00
2023-10-23T19:00:30.279Z,100.00
2023-10-23T19:02:56.815Z,100.00
2023-10-23T19:05:23.389Z,100.00
2023-10-23T19:07:50.280Z,100.00
2023-10-23T19:10:16.852Z,100.00
2023-10-23T19:12:43.527Z,100.00
2023-10-23T19:15:10.128Z,100.00
2023-10-23T19:17:41.108Z,100.00
2023-10-23T19:20:09.215Z,100.00
2023-10-23T19:22:37.226Z,100.00
2023-10-23T19:25:04.936Z,100.00
2023-10-23T19:27:32.205Z,100.00
2023-10-23T19:29:58.853Z,100.00
2023-10-23T19:32:26.130Z,100.00
2023-10-23T19:34:52.975Z,100.00
2023-10-23T19:37:19.962Z,100.00
2023-10-23T19:39:46.712Z,100.00
2023-10-23T19:42:17.782Z,100.00
2023-10-23T19:44:44.778Z,100.00
2023-10-23T19:47:15.069Z,100.00
2023-10-23T19:49:44.371Z,100.00
2023-10-23T19:52:14.146Z,100.00
2023-10-23T19:54:47.883Z,100.00
2023-10-23T19:57:17.242Z,100.00
2023-10-23T19:59:43.978Z,100.00
2023-10-23T20:02:10.978Z,100.00
2023-10-23T20:04:37.628Z,100.00
2023-10-23T20:07:04.670Z,100.00
2023-10-23T20:09:31.252Z,100.00
2023-10-23T20:11:57.668Z,100.00
2023-10-23T20:14:24.261Z,100.00
2023-10-23T20:16:50.857Z,100.00
2023-10-23T20:19:17.490Z,100.00
2023-10-23T20:21:45.468Z,100.00
2023-10-23T20:24:11.983Z,100.00
2023-10-23T20:26:40.161Z,100.00
2023-10-23T20:29:06.672Z,100.00
2023-10-23T20:31:33.171Z,100.00
2023-10-23T20:33:59.697Z,100.00
2023-10-23T20:36:27.696Z,100.00
2023-10-23T20:38:54.133Z,100.00
2023-10-23T20:41:20.873Z,100.00
2023-10-23T20:43:49.619Z,100.00
2023-10-23T20:46:17.342Z,100.00
2023-10-23T20:48:44.254Z,100.00
2023-10-23T20:51:10.992Z,100.00
2023-10-23T20:53:37.485Z,100.00
2023-10-23T20:56:04.379Z,100.00
2023-10-23T20:58:31.831Z,100.00
2023-10-23T21:01:05.155Z,100.00
2023-10-23T21:03:31.895Z,100.00
2023-10-23T21:06:05.761Z,100.00
2023-10-23T21:08:39.808Z,100.00
2023-10-23T21:11:07.245Z,100.00
2023-10-23T21:13:34.677Z,100.00
2023-10-23T21:16:01.537Z,100.00
2023-10-23T21:18:28.338Z,100.00
2023-10-23T21:20:57.393Z,100.00
2023-10-23T21:23:23.912Z,100.00
2023-10-23T21:25:53.342Z,100.00
2023-10-23T21:28:26.584Z,100.00
2023-10-23T21:30:55.254Z,100.00
2023-10-23T21:33:21.794Z,100.00
2023-10-23T21:35:48.281Z,100.00
2023-10-23T21:38:15.499Z,100.00
2023-10-23T21:40:46.261Z,100.00
2023-10-23T21:43:13.401Z,100.00
2023-10-23T21:45:41.138Z,100.00
2023-10-23T21:48:08.166Z,100.00
2023-10-23T21:50:34.630Z,100.00
2023-10-23T21:53:01.302Z,100.00
2023-10-23T21:55:28.067Z,100.00
2023-10-23T21:57:54.699Z,100.00
2023-10-23T22:00:31.271Z,100.00
2023-10-23T22:03:00.753Z,100.00
2023-10-23T22:05:27.526Z,100.00
2023-10-23T22:07:54.401Z,100.00
2023-10-23T22:10:22.970Z,100.00
2023-10-23T22:12:49.642Z,100.00
2023-10-23T22:15:16.108Z,100.00
2023-10-23T22:17:42.486Z,100.00
2023-10-23T22:20:09.526Z,100.00
2023-10-23T22:22:36.453Z,100.00
2023-10-23T22:25:04.614Z,100.00
2023-10-23T22:27:33.381Z,100.00
2023-10-23T22:30:06.126Z,100.00
2023-10-23T22:32:33.715Z,100.00
2023-10-23T22:35:01.489Z,100.00
2023-10-23T22:37:55.697Z,100.00
2023-10-23T22:40:16.643Z,100.00
2023-10-23T22:42:43.597Z,100.00
2023-10-23T22:45:10.204Z,100.00
2023-10-23T22:47:36.635Z,100.00
2023-10-23T22:50:03.577Z,100.00
2023-10-23T22:52:30.255Z,100.00
2023-10-23T22:54:56.873Z,100.00
2023-10-23T22:57:24.174Z,100.00
2023-10-23T22:59:51.215Z,100.00
2023-10-23T23:02:18.515Z,100.00
2023-10-23T23:04:45.671Z,100.00
2023-10-23T23:07:12.812Z,100.00
2023-10-23T23:09:40.996Z,100.00
2023-10-23T23:12:08.147Z,100.00
2023-10-23T23:14:35.180Z,100.00
2023-10-23T23:17:04.090Z,100.00
2023-10-23T23:19:32.081Z,100.00
2023-10-23T23:22:06.929Z,100.00
2023-10-23T23:24:33.455Z,100.00
2023-10-23T23:26:59.948Z,100.00
2023-10-23T23:29:26.353Z,100.00
2023-10-23T23:31:52.924Z,100.00
2023-10-23T23:34:19.448Z,100.00
2023-10-23T23:36:45.852Z,100.00
2023-10-23T23:39:12.574Z,100.00
2023-10-23T23:41:38.919Z,100.00
2023-10-23T23:44:05.409Z,100.00
2023-10-23T23:46:31.902Z,100.00
2023-10-23T23:48:58.405Z,100.00
2023-10-23T23:51:24.817Z,100.00
2023-10-23T23:53:51.486Z,100.00
2023-10-23T23:56:17.840Z,100.00
2023-10-23T23:58:44.753Z,100.00
